sensor_id;sensor_type;location;lat;lon;timestamp;P1;durP1;ratioP1;P2;durP2;ratioP2
16115;SDS011;8162;47.104;15.432;2023-04-28T00:01:52;4.33;;;3.30;;
16115;SDS011;8162;47.104;15.432;2023-04-28T00:04:53;5.30;;;3.10;;
16115;SDS011;8162;47.104;15.432;2023-04-28T00:07:54;5.63;;;3.07;;
16115;SDS011;8162;47.104;15.432;2023-04-28T00:10:55;6.03;;;3.30;;
16115;SDS011;8162;47.104;15.432;2023-04-28T00:13:57;4.27;;;3.20;;
16115;SDS011;8162;47.104;15.432;2023-04-28T00:16:58;7.57;;;3.33;;
16115;SDS011;8162;47.104;15.432;2023-04-28T00:19:59;5.97;;;3.07;;
16115;SDS011;8162;47.104;15.432;2023-04-28T00:23:00;6.50;;;3.13;;
16115;SDS011;8162;47.104;15.432;2023-04-28T00:26:01;6.63;;;3.33;;
16115;SDS011;8162;47.104;15.432;2023-04-28T00:29:02;8.50;;;3.40;;
16115;SDS011;8162;47.104;15.432;2023-04-28T00:32:03;8.73;;;2.93;;
16115;SDS011;8162;47.104;15.432;2023-04-28T00:35:04;7.00;;;3.53;;
16115;SDS011;8162;47.104;15.432;2023-04-28T00:38:06;4.53;;;3.03;;
16115;SDS011;8162;47.104;15.432;2023-04-28T00:41:08;8.97;;;3.20;;
16115;SDS011;8162;47.104;15.432;2023-04-28T00:44:10;4.63;;;3.30;;
16115;SDS011;8162;47.104;15.432;2023-04-28T00:47:11;3.50;;;2.87;;
16115;SDS011;8162;47.104;15.432;2023-04-28T00:50:12;4.90;;;3.43;;
16115;SDS011;8162;47.104;15.432;2023-04-28T00:53:13;5.90;;;3.00;;
16115;SDS011;8162;47.104;15.432;2023-04-28T00:56:15;4.40;;;3.17;;
16115;SDS011;8162;47.104;15.432;2023-04-28T00:59:16;3.27;;;2.97;;
16115;SDS011;8162;47.104;15.432;2023-04-28T01:02:17;5.07;;;3.37;;
16115;SDS011;8162;47.104;15.432;2023-04-28T01:05:18;4.63;;;3.40;;
16115;SDS011;8162;47.104;15.432;2023-04-28T01:08:23;5.83;;;3.43;;
16115;SDS011;8162;47.104;15.432;2023-04-28T01:11:24;5.97;;;3.63;;
16115;SDS011;8162;47.104;15.432;2023-04-28T01:14:25;5.70;;;3.20;;
16115;SDS011;8162;47.104;15.432;2023-04-28T01:17:26;4.97;;;3.07;;
16115;SDS011;8162;47.104;15.432;2023-04-28T01:20:27;4.40;;;3.17;;
16115;SDS011;8162;47.104;15.432;2023-04-28T01:23:28;5.43;;;4.10;;
16115;SDS011;8162;47.104;15.432;2023-04-28T01:26:30;7.70;;;4.00;;
16115;SDS011;8162;47.104;15.432;2023-04-28T01:29:31;5.90;;;3.90;;
16115;SDS011;8162;47.104;15.432;2023-04-28T01:32:32;5.23;;;3.40;;
16115;SDS011;8162;47.104;15.432;2023-04-28T01:35:33;5.77;;;3.73;;
16115;SDS011;8162;47.104;15.432;2023-04-28T01:38:34;4.03;;;3.57;;
16115;SDS011;8162;47.104;15.432;2023-04-28T01:41:35;4.53;;;3.57;;
16115;SDS011;8162;47.104;15.432;2023-04-28T01:44:36;6.50;;;3.80;;
16115;SDS011;8162;47.104;15.432;2023-04-28T01:47:37;3.80;;;3.30;;
16115;SDS011;8162;47.104;15.432;2023-04-28T01:50:38;5.07;;;3.77;;
16115;SDS011;8162;47.104;15.432;2023-04-28T01:53:39;4.10;;;3.60;;
16115;SDS011;8162;47.104;15.432;2023-04-28T01:56:40;3.83;;;3.40;;
16115;SDS011;8162;47.104;15.432;2023-04-28T01:59:41;5.33;;;4.10;;
16115;SDS011;8162;47.104;15.432;2023-04-28T02:02:42;6.87;;;3.83;;
16115;SDS011;8162;47.104;15.432;2023-04-28T02:05:43;4.70;;;3.57;;
16115;SDS011;8162;47.104;15.432;2023-04-28T02:08:44;6.27;;;4.17;;
16115;SDS011;8162;47.104;15.432;2023-04-28T02:11:45;4.23;;;3.80;;
16115;SDS011;8162;47.104;15.432;2023-04-28T02:14:47;4.13;;;3.67;;
16115;SDS011;8162;47.104;15.432;2023-04-28T02:17:48;5.97;;;4.20;;
16115;SDS011;8162;47.104;15.432;2023-04-28T02:20:49;7.87;;;3.90;;
16115;SDS011;8162;47.104;15.432;2023-04-28T02:23:50;7.27;;;4.30;;
16115;SDS011;8162;47.104;15.432;2023-04-28T02:26:51;3.80;;;3.50;;
16115;SDS011;8162;47.104;15.432;2023-04-28T02:29:52;5.90;;;4.10;;
16115;SDS011;8162;47.104;15.432;2023-04-28T02:32:53;5.33;;;3.90;;
16115;SDS011;8162;47.104;15.432;2023-04-28T02:35:58;5.13;;;4.47;;
16115;SDS011;8162;47.104;15.432;2023-04-28T02:38:59;4.83;;;4.20;;
16115;SDS011;8162;47.104;15.432;2023-04-28T02:42:00;5.30;;;4.20;;
16115;SDS011;8162;47.104;15.432;2023-04-28T02:45:04;3.93;;;3.50;;
16115;SDS011;8162;47.104;15.432;2023-04-28T02:48:05;6.00;;;3.87;;
16115;SDS011;8162;47.104;15.432;2023-04-28T02:51:06;8.33;;;3.90;;
16115;SDS011;8162;47.104;15.432;2023-04-28T02:54:07;5.10;;;3.60;;
16115;SDS011;8162;47.104;15.432;2023-04-28T02:57:08;5.03;;;3.57;;
16115;SDS011;8162;47.104;15.432;2023-04-28T03:00:09;7.40;;;3.97;;
16115;SDS011;8162;47.104;15.432;2023-04-28T03:03:11;5.33;;;4.33;;
16115;SDS011;8162;47.104;15.432;2023-04-28T03:06:12;4.97;;;4.33;;
16115;SDS011;8162;47.104;15.432;2023-04-28T03:09:13;6.57;;;4.57;;
16115;SDS011;8162;47.104;15.432;2023-04-28T03:12:14;5.80;;;4.53;;
16115;SDS011;8162;47.104;15.432;2023-04-28T03:15:15;5.13;;;3.97;;
16115;SDS011;8162;47.104;15.432;2023-04-28T03:18:33;4.50;;;3.93;;
16115;SDS011;8162;47.104;15.432;2023-04-28T03:21:34;6.27;;;4.50;;
16115;SDS011;8162;47.104;15.432;2023-04-28T03:24:35;7.03;;;4.37;;
16115;SDS011;8162;47.104;15.432;2023-04-28T03:27:36;4.77;;;4.10;;
16115;SDS011;8162;47.104;15.432;2023-04-28T03:30:37;7.43;;;4.60;;
16115;SDS011;8162;47.104;15.432;2023-04-28T03:33:38;6.57;;;4.03;;
16115;SDS011;8162;47.104;15.432;2023-04-28T03:36:39;5.33;;;4.23;;
16115;SDS011;8162;47.104;15.432;2023-04-28T03:39:40;4.00;;;3.60;;
16115;SDS011;8162;47.104;15.432;2023-04-28T03:42:41;5.30;;;4.17;;
16115;SDS011;8162;47.104;15.432;2023-04-28T03:45:42;5.23;;;4.00;;
16115;SDS011;8162;47.104;15.432;2023-04-28T03:48:43;4.83;;;3.97;;
16115;SDS011;8162;47.104;15.432;2023-04-28T03:51:45;4.23;;;3.83;;
16115;SDS011;8162;47.104;15.432;2023-04-28T03:54:46;7.47;;;4.73;;
16115;SDS011;8162;47.104;15.432;2023-04-28T03:57:47;5.10;;;4.00;;
16115;SDS011;8162;47.104;15.432;2023-04-28T04:00:48;5.93;;;4.20;;
16115;SDS011;8162;47.104;15.432;2023-04-28T04:03:50;5.83;;;3.93;;
16115;SDS011;8162;47.104;15.432;2023-04-28T04:06:51;6.30;;;4.50;;
16115;SDS011;8162;47.104;15.432;2023-04-28T04:09:52;4.77;;;4.30;;
16115;SDS011;8162;47.104;15.432;2023-04-28T04:12:53;5.13;;;4.63;;
16115;SDS011;8162;47.104;15.432;2023-04-28T04:15:54;5.47;;;4.30;;
16115;SDS011;8162;47.104;15.432;2023-04-28T04:18:55;6.97;;;4.10;;
16115;SDS011;8162;47.104;15.432;2023-04-28T04:21:56;7.97;;;4.17;;
16115;SDS011;8162;47.104;15.432;2023-04-28T04:24:57;5.73;;;4.43;;
16115;SDS011;8162;47.104;15.432;2023-04-28T04:27:58;6.20;;;5.18;;
16115;SDS011;8162;47.104;15.432;2023-04-28T04:30:59;4.80;;;3.80;;
16115;SDS011;8162;47.104;15.432;2023-04-28T04:34:02;4.43;;;3.90;;
16115;SDS011;8162;47.104;15.432;2023-04-28T04:37:03;5.43;;;4.10;;
16115;SDS011;8162;47.104;15.432;2023-04-28T04:40:04;5.43;;;3.93;;
16115;SDS011;8162;47.104;15.432;2023-04-28T04:43:05;5.47;;;3.83;;
16115;SDS011;8162;47.104;15.432;2023-04-28T04:46:06;8.67;;;4.50;;
16115;SDS011;8162;47.104;15.432;2023-04-28T04:49:07;5.03;;;4.03;;
16115;SDS011;8162;47.104;15.432;2023-04-28T04:52:08;5.17;;;3.30;;
16115;SDS011;8162;47.104;15.432;2023-04-28T04:55:09;5.60;;;3.70;;
16115;SDS011;8162;47.104;15.432;2023-04-28T04:58:10;6.00;;;4.43;;
16115;SDS011;8162;47.104;15.432;2023-04-28T05:01:11;5.07;;;4.13;;
16115;SDS011;8162;47.104;15.432;2023-04-28T05:04:12;5.20;;;4.37;;
16115;SDS011;8162;47.104;15.432;2023-04-28T05:07:13;5.77;;;4.63;;
16115;SDS011;8162;47.104;15.432;2023-04-28T05:10:14;6.70;;;4.70;;
16115;SDS011;8162;47.104;15.432;2023-04-28T05:13:15;4.93;;;4.27;;
16115;SDS011;8162;47.104;15.432;2023-04-28T05:16:16;4.53;;;4.13;;
16115;SDS011;8162;47.104;15.432;2023-04-28T05:19:17;5.17;;;4.67;;
16115;SDS011;8162;47.104;15.432;2023-04-28T05:22:18;6.00;;;4.50;;
16115;SDS011;8162;47.104;15.432;2023-04-28T05:25:20;6.43;;;4.50;;
16115;SDS011;8162;47.104;15.432;2023-04-28T05:28:21;4.67;;;4.10;;
16115;SDS011;8162;47.104;15.432;2023-04-28T05:31:22;8.23;;;4.97;;
16115;SDS011;8162;47.104;15.432;2023-04-28T05:34:23;5.67;;;4.70;;
16115;SDS011;8162;47.104;15.432;2023-04-28T05:37:24;7.23;;;4.77;;
16115;SDS011;8162;47.104;15.432;2023-04-28T05:40:25;9.17;;;5.27;;
16115;SDS011;8162;47.104;15.432;2023-04-28T05:43:27;5.50;;;4.70;;
16115;SDS011;8162;47.104;15.432;2023-04-28T05:46:28;9.10;;;4.87;;
16115;SDS011;8162;47.104;15.432;2023-04-28T05:49:29;5.40;;;4.37;;
16115;SDS011;8162;47.104;15.432;2023-04-28T05:52:30;7.87;;;5.43;;
16115;SDS011;8162;47.104;15.432;2023-04-28T05:55:31;7.47;;;4.90;;
16115;SDS011;8162;47.104;15.432;2023-04-28T05:58:33;6.40;;;4.70;;
16115;SDS011;8162;47.104;15.432;2023-04-28T06:01:34;6.87;;;5.30;;
16115;SDS011;8162;47.104;15.432;2023-04-28T06:04:35;5.90;;;4.60;;
16115;SDS011;8162;47.104;15.432;2023-04-28T06:07:36;6.90;;;4.57;;
16115;SDS011;8162;47.104;15.432;2023-04-28T06:10:37;7.17;;;5.60;;
16115;SDS011;8162;47.104;15.432;2023-04-28T06:13:38;8.93;;;5.33;;
16115;SDS011;8162;47.104;15.432;2023-04-28T06:16:39;6.23;;;5.20;;
16115;SDS011;8162;47.104;15.432;2023-04-28T06:19:40;6.60;;;5.83;;
16115;SDS011;8162;47.104;15.432;2023-04-28T06:22:41;9.87;;;5.60;;
16115;SDS011;8162;47.104;15.432;2023-04-28T06:25:42;8.60;;;6.47;;
16115;SDS011;8162;47.104;15.432;2023-04-28T06:28:43;11.00;;;6.00;;
16115;SDS011;8162;47.104;15.432;2023-04-28T06:31:44;7.77;;;5.70;;
16115;SDS011;8162;47.104;15.432;2023-04-28T06:34:45;9.47;;;5.97;;
16115;SDS011;8162;47.104;15.432;2023-04-28T06:37:46;6.60;;;5.60;;
16115;SDS011;8162;47.104;15.432;2023-04-28T06:40:48;8.83;;;6.23;;
16115;SDS011;8162;47.104;15.432;2023-04-28T06:43:49;11.23;;;5.93;;
16115;SDS011;8162;47.104;15.432;2023-04-28T06:46:50;12.87;;;6.73;;
16115;SDS011;8162;47.104;15.432;2023-04-28T06:49:51;11.67;;;7.03;;
16115;SDS011;8162;47.104;15.432;2023-04-28T06:52:52;9.37;;;7.17;;
16115;SDS011;8162;47.104;15.432;2023-04-28T06:55:53;7.97;;;6.40;;
16115;SDS011;8162;47.104;15.432;2023-04-28T06:58:55;7.57;;;5.63;;
16115;SDS011;8162;47.104;15.432;2023-04-28T07:01:57;8.47;;;5.60;;
16115;SDS011;8162;47.104;15.432;2023-04-28T07:04:58;6.33;;;5.70;;
16115;SDS011;8162;47.104;15.432;2023-04-28T07:07:59;9.47;;;5.37;;
16115;SDS011;8162;47.104;15.432;2023-04-28T07:11:01;7.83;;;5.73;;
16115;SDS011;8162;47.104;15.432;2023-04-28T07:14:05;10.30;;;5.53;;
16115;SDS011;8162;47.104;15.432;2023-04-28T07:17:07;6.93;;;5.53;;
16115;SDS011;8162;47.104;15.432;2023-04-28T07:20:08;8.10;;;5.30;;
16115;SDS011;8162;47.104;15.432;2023-04-28T07:23:09;7.33;;;5.17;;
16115;SDS011;8162;47.104;15.432;2023-04-28T07:26:10;10.37;;;5.70;;
16115;SDS011;8162;47.104;15.432;2023-04-28T07:29:15;5.33;;;4.67;;
16115;SDS011;8162;47.104;15.432;2023-04-28T07:32:16;7.53;;;5.67;;
16115;SDS011;8162;47.104;15.432;2023-04-28T07:35:17;9.17;;;5.13;;
16115;SDS011;8162;47.104;15.432;2023-04-28T07:38:18;8.17;;;5.47;;
16115;SDS011;8162;47.104;15.432;2023-04-28T07:41:19;7.20;;;4.60;;
16115;SDS011;8162;47.104;15.432;2023-04-28T07:44:20;7.23;;;5.30;;
16115;SDS011;8162;47.104;15.432;2023-04-28T07:47:21;8.20;;;4.70;;
16115;SDS011;8162;47.104;15.432;2023-04-28T07:50:23;8.13;;;5.50;;
16115;SDS011;8162;47.104;15.432;2023-04-28T07:53:24;7.03;;;5.10;;
16115;SDS011;8162;47.104;15.432;2023-04-28T07:56:25;7.60;;;4.70;;
16115;SDS011;8162;47.104;15.432;2023-04-28T07:59:26;5.77;;;4.53;;
16115;SDS011;8162;47.104;15.432;2023-04-28T08:02:27;6.27;;;4.53;;
16115;SDS011;8162;47.104;15.432;2023-04-28T08:05:28;6.83;;;5.37;;
16115;SDS011;8162;47.104;15.432;2023-04-28T08:08:30;8.50;;;4.90;;
16115;SDS011;8162;47.104;15.432;2023-04-28T08:11:31;5.30;;;4.03;;
16115;SDS011;8162;47.104;15.432;2023-04-28T08:14:32;5.60;;;4.57;;
16115;SDS011;8162;47.104;15.432;2023-04-28T08:17:33;6.67;;;5.00;;
16115;SDS011;8162;47.104;15.432;2023-04-28T08:20:34;6.53;;;4.53;;
16115;SDS011;8162;47.104;15.432;2023-04-28T08:23:35;6.30;;;5.50;;
16115;SDS011;8162;47.104;15.432;2023-04-28T08:26:37;5.67;;;5.17;;
16115;SDS011;8162;47.104;15.432;2023-04-28T08:29:38;8.70;;;5.17;;
16115;SDS011;8162;47.104;15.432;2023-04-28T08:32:39;7.93;;;4.87;;
16115;SDS011;8162;47.104;15.432;2023-04-28T08:35:40;7.60;;;4.80;;
16115;SDS011;8162;47.104;15.432;2023-04-28T08:38:41;7.83;;;4.80;;
16115;SDS011;8162;47.104;15.432;2023-04-28T08:41:42;7.13;;;4.90;;
16115;SDS011;8162;47.104;15.432;2023-04-28T08:44:43;5.07;;;4.50;;
16115;SDS011;8162;47.104;15.432;2023-04-28T08:47:45;7.13;;;4.80;;
16115;SDS011;8162;47.104;15.432;2023-04-28T08:50:52;7.20;;;5.20;;
16115;SDS011;8162;47.104;15.432;2023-04-28T08:53:54;7.63;;;4.93;;
16115;SDS011;8162;47.104;15.432;2023-04-28T08:56:55;7.63;;;4.40;;
16115;SDS011;8162;47.104;15.432;2023-04-28T08:59:57;8.53;;;5.27;;
16115;SDS011;8162;47.104;15.432;2023-04-28T09:02:58;8.53;;;5.60;;
16115;SDS011;8162;47.104;15.432;2023-04-28T09:05:59;7.80;;;5.13;;
16115;SDS011;8162;47.104;15.432;2023-04-28T09:12:21;9.70;;;6.80;;
16115;SDS011;8162;47.104;15.432;2023-04-28T09:15:36;8.77;;;5.80;;
16115;SDS011;8162;47.104;15.432;2023-04-28T09:18:41;12.30;;;5.63;;
16115;SDS011;8162;47.104;15.432;2023-04-28T09:21:56;9.07;;;6.23;;
16115;SDS011;8162;47.104;15.432;2023-04-28T09:24:57;11.10;;;5.93;;
16115;SDS011;8162;47.104;15.432;2023-04-28T09:28:20;8.20;;;5.40;;
16115;SDS011;8162;47.104;15.432;2023-04-28T09:31:24;9.73;;;6.40;;
16115;SDS011;8162;47.104;15.432;2023-04-28T09:34:38;10.63;;;6.67;;
16115;SDS011;8162;47.104;15.432;2023-04-28T09:37:44;7.30;;;5.50;;
16115;SDS011;8162;47.104;15.432;2023-04-28T09:44:14;10.50;;;5.53;;
16115;SDS011;8162;47.104;15.432;2023-04-28T09:47:19;6.53;;;4.57;;
16115;SDS011;8162;47.104;15.432;2023-04-28T09:50:21;5.73;;;4.93;;
16115;SDS011;8162;47.104;15.432;2023-04-28T09:53:22;8.17;;;5.27;;
16115;SDS011;8162;47.104;15.432;2023-04-28T09:56:23;7.13;;;6.30;;
16115;SDS011;8162;47.104;15.432;2023-04-28T09:59:26;7.37;;;5.40;;
16115;SDS011;8162;47.104;15.432;2023-04-28T10:02:27;9.57;;;5.63;;
16115;SDS011;8162;47.104;15.432;2023-04-28T10:05:30;6.27;;;4.67;;
16115;SDS011;8162;47.104;15.432;2023-04-28T10:08:31;8.73;;;4.97;;
16115;SDS011;8162;47.104;15.432;2023-04-28T10:11:32;5.30;;;4.80;;
16115;SDS011;8162;47.104;15.432;2023-04-28T10:14:33;5.30;;;4.80;;
16115;SDS011;8162;47.104;15.432;2023-04-28T10:17:35;6.83;;;4.80;;
16115;SDS011;8162;47.104;15.432;2023-04-28T10:20:37;7.87;;;4.67;;
16115;SDS011;8162;47.104;15.432;2023-04-28T10:29:53;6.63;;;5.87;;
16115;SDS011;8162;47.104;15.432;2023-04-28T10:39:34;6.10;;;5.23;;
16115;SDS011;8162;47.104;15.432;2023-04-28T10:42:51;10.20;;;5.33;;
16115;SDS011;8162;47.104;15.432;2023-04-28T10:48:53;8.47;;;5.37;;
16115;SDS011;8162;47.104;15.432;2023-04-28T10:51:54;7.97;;;5.90;;
16115;SDS011;8162;47.104;15.432;2023-04-28T11:04:30;7.37;;;5.70;;
16115;SDS011;8162;47.104;15.432;2023-04-28T11:08:37;8.83;;;5.77;;
16115;SDS011;8162;47.104;15.432;2023-04-28T11:17:19;8.67;;;5.77;;
16115;SDS011;8162;47.104;15.432;2023-04-28T11:20:34;6.63;;;5.70;;
16115;SDS011;8162;47.104;15.432;2023-04-28T11:23:36;8.40;;;5.30;;
16115;SDS011;8162;47.104;15.432;2023-04-28T11:26:39;6.03;;;5.43;;
16115;SDS011;8162;47.104;15.432;2023-04-28T11:29:40;6.60;;;5.80;;
16115;SDS011;8162;47.104;15.432;2023-04-28T11:32:42;6.87;;;5.40;;
16115;SDS011;8162;47.104;15.432;2023-04-28T11:35:43;13.67;;;6.00;;
16115;SDS011;8162;47.104;15.432;2023-04-28T11:38:45;5.97;;;5.17;;
16115;SDS011;8162;47.104;15.432;2023-04-28T11:41:48;7.70;;;5.30;;
16115;SDS011;8162;47.104;15.432;2023-04-28T11:44:49;8.33;;;6.03;;
16115;SDS011;8162;47.104;15.432;2023-04-28T11:47:51;11.97;;;6.63;;
16115;SDS011;8162;47.104;15.432;2023-04-28T11:50:52;9.07;;;6.80;;
16115;SDS011;8162;47.104;15.432;2023-04-28T11:53:53;6.77;;;6.17;;
16115;SDS011;8162;47.104;15.432;2023-04-28T11:56:55;6.40;;;5.73;;
16115;SDS011;8162;47.104;15.432;2023-04-28T12:00:12;7.40;;;5.93;;
16115;SDS011;8162;47.104;15.432;2023-04-28T12:03:18;7.87;;;6.00;;
16115;SDS011;8162;47.104;15.432;2023-04-28T12:06:18;7.97;;;6.63;;
16115;SDS011;8162;47.104;15.432;2023-04-28T12:09:19;9.50;;;6.13;;
16115;SDS011;8162;47.104;15.432;2023-04-28T12:12:27;6.70;;;6.07;;
16115;SDS011;8162;47.104;15.432;2023-04-28T12:15:38;10.97;;;7.07;;
16115;SDS011;8162;47.104;15.432;2023-04-28T12:18:43;7.77;;;6.97;;
16115;SDS011;8162;47.104;15.432;2023-04-28T12:21:59;10.47;;;6.47;;
16115;SDS011;8162;47.104;15.432;2023-04-28T12:25:05;8.63;;;7.03;;
16115;SDS011;8162;47.104;15.432;2023-04-28T12:28:10;7.90;;;6.53;;
16115;SDS011;8162;47.104;15.432;2023-04-28T12:31:11;9.80;;;6.43;;
16115;SDS011;8162;47.104;15.432;2023-04-28T12:34:11;8.43;;;6.37;;
16115;SDS011;8162;47.104;15.432;2023-04-28T12:37:12;12.13;;;6.60;;
16115;SDS011;8162;47.104;15.432;2023-04-28T12:40:13;6.80;;;5.97;;
16115;SDS011;8162;47.104;15.432;2023-04-28T12:43:14;7.87;;;6.57;;
16115;SDS011;8162;47.104;15.432;2023-04-28T12:46:14;7.80;;;6.10;;
16115;SDS011;8162;47.104;15.432;2023-04-28T12:49:15;7.73;;;6.30;;
16115;SDS011;8162;47.104;15.432;2023-04-28T12:52:16;9.73;;;6.90;;
16115;SDS011;8162;47.104;15.432;2023-04-28T12:55:17;8.53;;;7.27;;
16115;SDS011;8162;47.104;15.432;2023-04-28T12:58:17;11.33;;;7.10;;
16115;SDS011;8162;47.104;15.432;2023-04-28T13:01:18;8.53;;;6.70;;
16115;SDS011;8162;47.104;15.432;2023-04-28T13:04:18;7.47;;;6.67;;
16115;SDS011;8162;47.104;15.432;2023-04-28T13:07:19;11.70;;;6.97;;
16115;SDS011;8162;47.104;15.432;2023-04-28T13:10:20;10.00;;;7.47;;
16115;SDS011;8162;47.104;15.432;2023-04-28T13:13:22;8.03;;;6.63;;
16115;SDS011;8162;47.104;15.432;2023-04-28T13:16:22;13.33;;;7.80;;
16115;SDS011;8162;47.104;15.432;2023-04-28T13:19:32;8.40;;;6.90;;
16115;SDS011;8162;47.104;15.432;2023-04-28T13:22:33;8.43;;;7.60;;
16115;SDS011;8162;47.104;15.432;2023-04-28T13:25:34;8.43;;;7.63;;
16115;SDS011;8162;47.104;15.432;2023-04-28T13:28:34;8.77;;;7.80;;
16115;SDS011;8162;47.104;15.432;2023-04-28T13:31:36;9.90;;;7.63;;
16115;SDS011;8162;47.104;15.432;2023-04-28T13:34:36;9.77;;;7.33;;
16115;SDS011;8162;47.104;15.432;2023-04-28T13:37:37;9.87;;;6.87;;
16115;SDS011;8162;47.104;15.432;2023-04-28T13:40:41;7.30;;;6.70;;
16115;SDS011;8162;47.104;15.432;2023-04-28T13:43:42;9.83;;;7.17;;
16115;SDS011;8162;47.104;15.432;2023-04-28T13:46:43;7.93;;;6.20;;
16115;SDS011;8162;47.104;15.432;2023-04-28T13:49:44;8.13;;;7.20;;
16115;SDS011;8162;47.104;15.432;2023-04-28T13:52:46;8.67;;;6.97;;
16115;SDS011;8162;47.104;15.432;2023-04-28T13:55:48;10.13;;;7.03;;
16115;SDS011;8162;47.104;15.432;2023-04-28T13:58:50;8.83;;;7.23;;
16115;SDS011;8162;47.104;15.432;2023-04-28T14:01:51;10.60;;;6.93;;
16115;SDS011;8162;47.104;15.432;2023-04-28T14:04:52;9.87;;;6.23;;
16115;SDS011;8162;47.104;15.432;2023-04-28T14:07:53;8.33;;;7.07;;
16115;SDS011;8162;47.104;15.432;2023-04-28T14:10:54;8.03;;;7.23;;
16115;SDS011;8162;47.104;15.432;2023-04-28T14:13:54;8.47;;;7.03;;
16115;SDS011;8162;47.104;15.432;2023-04-28T14:16:55;9.13;;;6.90;;
16115;SDS011;8162;47.104;15.432;2023-04-28T14:19:56;8.40;;;6.30;;
16115;SDS011;8162;47.104;15.432;2023-04-28T14:22:57;11.83;;;7.50;;
16115;SDS011;8162;47.104;15.432;2023-04-28T14:25:59;10.23;;;7.23;;
16115;SDS011;8162;47.104;15.432;2023-04-28T14:29:00;10.93;;;8.27;;
16115;SDS011;8162;47.104;15.432;2023-04-28T14:32:01;8.27;;;7.20;;
16115;SDS011;8162;47.104;15.432;2023-04-28T14:35:02;8.97;;;7.40;;
16115;SDS011;8162;47.104;15.432;2023-04-28T14:38:05;8.83;;;7.93;;
16115;SDS011;8162;47.104;15.432;2023-04-28T14:41:06;8.70;;;6.80;;
16115;SDS011;8162;47.104;15.432;2023-04-28T14:44:07;9.47;;;8.47;;
16115;SDS011;8162;47.104;15.432;2023-04-28T14:47:08;9.10;;;7.60;;
16115;SDS011;8162;47.104;15.432;2023-04-28T14:50:09;7.97;;;7.17;;
16115;SDS011;8162;47.104;15.432;2023-04-28T14:53:10;8.73;;;7.80;;
16115;SDS011;8162;47.104;15.432;2023-04-28T14:56:12;9.37;;;7.60;;
16115;SDS011;8162;47.104;15.432;2023-04-28T14:59:13;9.37;;;7.83;;
16115;SDS011;8162;47.104;15.432;2023-04-28T15:02:14;9.93;;;8.40;;
16115;SDS011;8162;47.104;15.432;2023-04-28T15:05:15;8.93;;;8.00;;
16115;SDS011;8162;47.104;15.432;2023-04-28T15:08:16;8.40;;;7.60;;
16115;SDS011;8162;47.104;15.432;2023-04-28T15:11:17;12.53;;;9.10;;
16115;SDS011;8162;47.104;15.432;2023-04-28T15:14:18;12.47;;;8.90;;
16115;SDS011;8162;47.104;15.432;2023-04-28T15:17:19;10.03;;;9.03;;
16115;SDS011;8162;47.104;15.432;2023-04-28T15:20:22;10.20;;;9.13;;
16115;SDS011;8162;47.104;15.432;2023-04-28T15:23:23;12.60;;;10.37;;
16115;SDS011;8162;47.104;15.432;2023-04-28T15:26:27;11.33;;;10.20;;
16115;SDS011;8162;47.104;15.432;2023-04-28T15:29:28;12.47;;;10.10;;
16115;SDS011;8162;47.104;15.432;2023-04-28T15:32:29;10.90;;;9.80;;
16115;SDS011;8162;47.104;15.432;2023-04-28T15:35:31;14.07;;;11.17;;
16115;SDS011;8162;47.104;15.432;2023-04-28T15:38:32;13.33;;;9.80;;
16115;SDS011;8162;47.104;15.432;2023-04-28T15:41:33;12.87;;;10.70;;
16115;SDS011;8162;47.104;15.432;2023-04-28T15:44:35;13.47;;;11.00;;
16115;SDS011;8162;47.104;15.432;2023-04-28T15:47:36;12.67;;;9.87;;
16115;SDS011;8162;47.104;15.432;2023-04-28T15:50:37;12.93;;;10.50;;
16115;SDS011;8162;47.104;15.432;2023-04-28T15:53:39;14.37;;;10.00;;
16115;SDS011;8162;47.104;15.432;2023-04-28T15:56:40;12.53;;;11.27;;
16115;SDS011;8162;47.104;15.432;2023-04-28T15:59:41;15.07;;;11.63;;
16115;SDS011;8162;47.104;15.432;2023-04-28T16:02:42;12.30;;;11.03;;
16115;SDS011;8162;47.104;15.432;2023-04-28T16:05:43;15.00;;;12.23;;
16115;SDS011;8162;47.104;15.432;2023-04-28T16:08:45;16.33;;;12.10;;
16115;SDS011;8162;47.104;15.432;2023-04-28T16:11:46;16.17;;;13.50;;
16115;SDS011;8162;47.104;15.432;2023-04-28T16:14:47;15.07;;;12.20;;
16115;SDS011;8162;47.104;15.432;2023-04-28T16:17:49;13.50;;;12.07;;
16115;SDS011;8162;47.104;15.432;2023-04-28T16:20:51;14.77;;;11.87;;
16115;SDS011;8162;47.104;15.432;2023-04-28T16:23:52;14.80;;;11.13;;
16115;SDS011;8162;47.104;15.432;2023-04-28T16:26:53;13.80;;;11.67;;
16115;SDS011;8162;47.104;15.432;2023-04-28T16:29:54;15.53;;;12.90;;
16115;SDS011;8162;47.104;15.432;2023-04-28T16:32:56;14.83;;;12.63;;
16115;SDS011;8162;47.104;15.432;2023-04-28T16:35:57;16.33;;;13.63;;
16115;SDS011;8162;47.104;15.432;2023-04-28T16:38:58;15.17;;;13.60;;
16115;SDS011;8162;47.104;15.432;2023-04-28T16:41:59;18.23;;;12.60;;
16115;SDS011;8162;47.104;15.432;2023-04-28T16:45:02;14.67;;;12.20;;
16115;SDS011;8162;47.104;15.432;2023-04-28T16:48:04;16.63;;;13.07;;
16115;SDS011;8162;47.104;15.432;2023-04-28T16:51:07;15.37;;;13.60;;
16115;SDS011;8162;47.104;15.432;2023-04-28T16:54:08;13.93;;;12.50;;
16115;SDS011;8162;47.104;15.432;2023-04-28T16:57:09;14.57;;;12.30;;
16115;SDS011;8162;47.104;15.432;2023-04-28T17:00:11;16.47;;;13.13;;
16115;SDS011;8162;47.104;15.432;2023-04-28T17:03:12;14.60;;;13.10;;
16115;SDS011;8162;47.104;15.432;2023-04-28T17:06:13;13.80;;;12.10;;
16115;SDS011;8162;47.104;15.432;2023-04-28T17:09:15;13.73;;;11.63;;
16115;SDS011;8162;47.104;15.432;2023-04-28T17:12:16;15.10;;;12.77;;
16115;SDS011;8162;47.104;15.432;2023-04-28T17:15:17;15.50;;;12.47;;
16115;SDS011;8162;47.104;15.432;2023-04-28T17:18:18;15.53;;;13.93;;
16115;SDS011;8162;47.104;15.432;2023-04-28T17:21:19;13.00;;;11.17;;
16115;SDS011;8162;47.104;15.432;2023-04-28T17:24:20;17.37;;;14.13;;
16115;SDS011;8162;47.104;15.432;2023-04-28T17:27:22;16.67;;;14.73;;
16115;SDS011;8162;47.104;15.432;2023-04-28T17:30:23;14.20;;;12.67;;
16115;SDS011;8162;47.104;15.432;2023-04-28T17:33:24;13.60;;;12.23;;
16115;SDS011;8162;47.104;15.432;2023-04-28T17:36:26;12.50;;;10.90;;
16115;SDS011;8162;47.104;15.432;2023-04-28T17:39:27;13.53;;;11.87;;
16115;SDS011;8162;47.104;15.432;2023-04-28T17:42:28;13.20;;;11.90;;
16115;SDS011;8162;47.104;15.432;2023-04-28T17:45:30;13.57;;;12.17;;
16115;SDS011;8162;47.104;15.432;2023-04-28T17:48:31;15.70;;;12.40;;
16115;SDS011;8162;47.104;15.432;2023-04-28T17:51:32;14.10;;;12.30;;
16115;SDS011;8162;47.104;15.432;2023-04-28T17:54:33;15.93;;;12.10;;
16115;SDS011;8162;47.104;15.432;2023-04-28T17:57:34;16.27;;;12.90;;
16115;SDS011;8162;47.104;15.432;2023-04-28T18:00:36;15.93;;;13.80;;
16115;SDS011;8162;47.104;15.432;2023-04-28T18:03:37;16.60;;;13.43;;
16115;SDS011;8162;47.104;15.432;2023-04-28T18:06:38;17.63;;;13.47;;
16115;SDS011;8162;47.104;15.432;2023-04-28T18:09:39;14.57;;;12.97;;
16115;SDS011;8162;47.104;15.432;2023-04-28T18:12:40;14.93;;;13.43;;
16115;SDS011;8162;47.104;15.432;2023-04-28T18:15:41;13.73;;;12.30;;
16115;SDS011;8162;47.104;15.432;2023-04-28T18:18:45;15.03;;;13.13;;
16115;SDS011;8162;47.104;15.432;2023-04-28T18:21:47;18.73;;;14.20;;
16115;SDS011;8162;47.104;15.432;2023-04-28T18:24:48;17.87;;;12.93;;
16115;SDS011;8162;47.104;15.432;2023-04-28T18:27:50;16.23;;;13.70;;
16115;SDS011;8162;47.104;15.432;2023-04-28T18:30:52;17.33;;;15.50;;
16115;SDS011;8162;47.104;15.432;2023-04-28T18:33:54;15.87;;;14.27;;
16115;SDS011;8162;47.104;15.432;2023-04-28T18:36:55;17.30;;;15.20;;
16115;SDS011;8162;47.104;15.432;2023-04-28T18:39:56;17.27;;;14.83;;
16115;SDS011;8162;47.104;15.432;2023-04-28T18:42:58;19.43;;;14.43;;
16115;SDS011;8162;47.104;15.432;2023-04-28T18:45:59;17.47;;;15.53;;